createdAt,value
2022-11-15T00:00:24.837Z,11.63
2022-11-15T00:03:19.868Z,9.48
2022-11-15T00:06:11.843Z,9.15
2022-11-15T00:09:03.606Z,7.83
2022-11-15T00:11:54.664Z,8.70
2022-11-15T00:14:45.101Z,9.25
2022-11-15T00:17:35.306Z,7.53
2022-11-15T00:20:25.655Z,8.55
2022-11-15T00:23:16.141Z,8.03
2022-11-15T00:26:06.419Z,8.10
2022-11-15T00:28:56.823Z,10.10
2022-11-15T00:31:46.971Z,12.28
2022-11-15T00:34:38.282Z,14.40
2022-11-15T00:37:30.407Z,15.60
2022-11-15T00:40:21.181Z,16.30
2022-11-15T00:43:11.787Z,18.70
2022-11-15T00:46:03.498Z,17.15
2022-11-15T00:48:53.947Z,17.15
2022-11-15T00:51:44.362Z,19.15
2022-11-15T00:54:35.650Z,17.30
2022-11-15T00:57:27.723Z,18.48
2022-11-15T01:00:18.811Z,13.98
2022-11-15T01:03:09.513Z,19.48
2022-11-15T01:06:02.402Z,14.07
2022-11-15T01:08:54.502Z,12.55
2022-11-15T01:11:45.034Z,11.40
2022-11-15T01:14:37.992Z,16.90
2022-11-15T01:17:28.164Z,11.45
2022-11-15T01:20:19.568Z,15.00
2022-11-15T01:23:10.175Z,17.00
2022-11-15T01:26:24.360Z,15.98
2022-11-15T01:29:14.502Z,13.45
2022-11-15T01:32:05.853Z,17.02
2022-11-15T01:34:56.476Z,20.95
2022-11-15T01:37:47.723Z,14.73
2022-11-15T01:40:39.229Z,16.32
2022-11-15T01:43:34.484Z,15.18
2022-11-15T01:46:47.019Z,12.18
2022-11-15T01:49:39.780Z,11.00
2022-11-15T01:52:33.432Z,11.00
2022-11-15T01:55:27.120Z,9.20
2022-11-15T01:58:19.264Z,7.95
2022-11-15T02:01:10.458Z,8.35
2022-11-15T02:04:06.537Z,9.38
2022-11-15T02:06:58.234Z,7.33
2022-11-15T02:09:48.791Z,8.43
2022-11-15T02:12:39.201Z,10.38
2022-11-15T02:15:33.922Z,8.43
2022-11-15T02:18:37.830Z,10.63
2022-11-15T02:22:01.809Z,8.70
2022-11-15T02:25:24.195Z,9.43
2022-11-15T02:28:34.625Z,7.22
2022-11-15T02:31:39.377Z,8.78
2022-11-15T02:35:14.435Z,6.05
2022-11-15T02:38:29.207Z,6.08
2022-11-15T02:41:31.842Z,8.18
2022-11-15T02:44:29.132Z,8.68
2022-11-15T02:47:20.206Z,7.20
2022-11-15T02:50:12.894Z,10.10
2022-11-15T02:53:04.870Z,6.78
2022-11-15T02:55:55.760Z,8.85
2022-11-15T02:58:53.740Z,9.90
2022-11-15T03:02:12.813Z,9.83
2022-11-15T03:05:29.279Z,10.38
2022-11-15T03:08:40.680Z,9.03
2022-11-15T03:11:31.652Z,10.00
2022-11-15T03:14:32.240Z,10.23
2022-11-15T03:17:32.387Z,12.80
2022-11-15T03:20:22.780Z,12.28
2022-11-15T03:23:14.691Z,11.95
2022-11-15T03:26:05.712Z,11.33
2022-11-15T03:29:08.504Z,12.53
2022-11-15T03:32:03.531Z,10.05
2022-11-15T03:35:20.583Z,10.48
2022-11-15T03:38:29.009Z,12.95
2022-11-15T03:41:30.148Z,11.95
2022-11-15T03:45:02.850Z,10.85
2022-11-15T03:48:04.357Z,12.37
2022-11-15T03:50:54.654Z,11.90
2022-11-15T03:53:45.280Z,13.22
2022-11-15T03:56:37.183Z,12.75
2022-11-15T03:59:27.770Z,10.88
2022-11-15T04:02:18.254Z,10.18
2022-11-15T04:05:09.078Z,14.03
2022-11-15T04:08:01.165Z,11.35
2022-11-15T04:10:54.861Z,13.45
2022-11-15T04:13:46.975Z,12.93
2022-11-15T04:16:43.566Z,13.05
2022-11-15T04:19:49.298Z,15.23
2022-11-15T04:22:58.943Z,19.27
2022-11-15T04:25:51.929Z,14.68
2022-11-15T04:29:01.205Z,15.05
2022-11-15T04:31:51.832Z,20.37
2022-11-15T04:34:44.525Z,17.25
2022-11-15T04:37:35.005Z,30.68
2022-11-15T04:40:28.012Z,18.30
2022-11-15T04:43:18.319Z,19.37
2022-11-15T04:46:09.292Z,18.20
2022-11-15T04:49:01.127Z,19.85
2022-11-15T04:51:51.823Z,18.85
2022-11-15T04:54:43.836Z,17.45
2022-11-15T04:57:35.651Z,21.20
2022-11-15T05:00:26.934Z,21.10
2022-11-15T05:03:35.989Z,20.95
2022-11-15T05:06:26.288Z,22.00
2022-11-15T05:09:20.624Z,24.23
2022-11-15T05:12:11.262Z,23.02
2022-11-15T05:15:02.560Z,22.67
2022-11-15T05:17:53.096Z,23.92
2022-11-15T05:20:45.127Z,24.50
2022-11-15T05:23:35.763Z,22.65
2022-11-15T05:26:27.903Z,25.02
2022-11-15T05:29:19.446Z,24.95
2022-11-15T05:32:11.445Z,25.25
2022-11-15T05:35:02.683Z,23.50
2022-11-15T05:37:52.916Z,25.23
2022-11-15T05:40:44.494Z,22.77
2022-11-15T05:43:35.749Z,26.80
2022-11-15T05:46:27.414Z,19.75
2022-11-15T05:49:20.792Z,25.27
2022-11-15T05:52:12.842Z,28.85
2022-11-15T05:55:04.541Z,26.00
2022-11-15T05:57:55.136Z,26.62
2022-11-15T06:00:46.476Z,26.70
2022-11-15T06:03:37.101Z,30.92
2022-11-15T06:06:29.153Z,35.35
2022-11-15T06:09:19.639Z,34.50
2022-11-15T06:12:10.129Z,34.98
2022-11-15T06:15:01.380Z,30.30
2022-11-15T06:17:54.325Z,30.35
2022-11-15T06:20:45.145Z,29.45
2022-11-15T06:23:36.773Z,29.82
2022-11-15T06:26:27.442Z,30.55
2022-11-15T06:29:18.493Z,27.90
2022-11-15T06:32:09.136Z,29.20
2022-11-15T06:35:00.633Z,31.23
2022-11-15T06:37:51.127Z,29.45
2022-11-15T06:40:42.305Z,31.40
2022-11-15T06:43:33.201Z,32.33
2022-11-15T06:46:23.677Z,27.40
2022-11-15T06:49:14.178Z,30.95
2022-11-15T06:52:04.676Z,28.67
2022-11-15T06:54:54.819Z,31.15
2022-11-15T06:57:52.614Z,25.32
2022-11-15T07:00:44.422Z,24.02
2022-11-15T07:03:37.458Z,27.15
2022-11-15T07:06:29.804Z,21.02
2022-11-15T07:09:23.022Z,22.42
2022-11-15T07:12:13.416Z,27.60
2022-11-15T07:15:04.434Z,22.22
2022-11-15T07:17:54.866Z,20.90
2022-11-15T07:20:45.047Z,19.23
2022-11-15T07:23:35.648Z,20.17
2022-11-15T07:26:25.859Z,23.15
2022-11-15T07:29:17.165Z,22.20
2022-11-15T07:32:07.926Z,23.02
2022-11-15T07:34:59.991Z,25.02
2022-11-15T07:38:03.501Z,20.80
2022-11-15T07:41:03.709Z,21.97
2022-11-15T07:43:55.312Z,21.23
2022-11-15T07:46:45.666Z,24.65
2022-11-15T07:49:36.049Z,20.00
2022-11-15T07:52:27.218Z,23.57
2022-11-15T07:55:18.086Z,25.30
2022-11-15T07:58:10.513Z,25.10
2022-11-15T08:01:02.818Z,24.52
2022-11-15T08:03:52.938Z,27.67
2022-11-15T08:06:44.694Z,28.70
2022-11-15T08:09:35.455Z,26.85
2022-11-15T08:12:26.867Z,27.62
2022-11-15T08:15:18.162Z,29.75
2022-11-15T08:18:17.326Z,26.62
2022-11-15T08:21:07.900Z,30.10
2022-11-15T08:23:58.556Z,28.90
2022-11-15T08:26:49.228Z,28.10
2022-11-15T08:29:39.786Z,33.45
2022-11-15T08:32:30.537Z,31.33
2022-11-15T08:35:27.684Z,29.25
2022-11-15T08:38:15.065Z,30.43
2022-11-15T08:41:07.302Z,27.58
2022-11-15T08:43:57.694Z,25.25
2022-11-15T08:46:51.362Z,22.82
2022-11-15T08:49:42.887Z,27.95
2022-11-15T08:52:33.752Z,25.32
2022-11-15T08:55:24.966Z,26.17
2022-11-15T08:58:15.727Z,23.40
2022-11-15T09:01:07.385Z,22.10
2022-11-15T09:03:58.154Z,30.25
2022-11-15T09:06:50.337Z,27.30
2022-11-15T09:09:41.017Z,29.55
2022-11-15T09:12:31.460Z,28.50
2022-11-15T09:15:21.923Z,27.70
2022-11-15T09:18:12.778Z,26.85
2022-11-15T09:21:04.041Z,26.40
2022-11-15T09:23:56.312Z,23.45
2022-11-15T09:26:47.111Z,23.00
2022-11-15T09:29:37.748Z,22.22
2022-11-15T09:32:38.822Z,20.75
2022-11-15T09:35:25.189Z,21.87
2022-11-15T09:38:15.793Z,19.48
2022-11-15T09:41:34.794Z,19.85
2022-11-15T09:44:41.986Z,18.62
2022-11-15T09:47:59.677Z,20.05
2022-11-15T09:50:54.737Z,18.32
2022-11-15T09:54:30.817Z,21.60
2022-11-15T09:56:32.412Z,19.80
2022-11-15T09:59:22.185Z,23.25
2022-11-15T13:06:58.856Z,40.35
2022-11-15T13:09:42.364Z,35.00
2022-11-15T13:12:37.258Z,32.65
2022-11-15T13:15:42.837Z,33.88
2022-11-15T13:18:47.576Z,37.53
2022-11-15T13:22:04.358Z,32.58
2022-11-15T13:24:40.072Z,33.20
2022-11-15T13:27:19.862Z,30.40
2022-11-15T13:29:52.298Z,31.50
2022-11-15T13:32:24.775Z,29.18
2022-11-15T13:34:58.995Z,26.50
2022-11-15T13:37:33.018Z,30.90
2022-11-15T13:40:31.919Z,30.57
2022-11-15T13:43:33.457Z,30.65
2022-11-15T13:46:26.771Z,31.27
2022-11-15T13:49:09.035Z,32.50
2022-11-15T13:51:52.818Z,38.17
2022-11-15T13:54:48.287Z,30.43
2022-11-15T13:57:29.778Z,36.40
2022-11-15T14:02:55.659Z,31.60
2022-11-15T14:05:29.776Z,35.15
2022-11-15T14:08:07.495Z,36.55
2022-11-15T14:10:40.446Z,31.95
2022-11-15T14:13:32.697Z,31.80
2022-11-15T14:16:22.857Z,31.17
2022-11-15T14:18:56.939Z,33.35
2022-11-15T14:21:29.710Z,34.90
2022-11-15T14:24:22.640Z,33.58
2022-11-15T14:26:54.995Z,30.75
2022-11-15T14:29:31.876Z,32.30
2022-11-15T14:32:26.179Z,36.42
2022-11-15T14:35:02.328Z,35.17
2022-11-15T14:37:39.843Z,38.05
2022-11-15T14:40:20.002Z,34.25
2022-11-15T14:42:52.481Z,39.42
2022-11-15T14:45:27.526Z,37.55
2022-11-15T14:48:00.107Z,36.85
2022-11-15T14:50:32.952Z,39.92
2022-11-15T14:53:06.780Z,40.70
2022-11-15T14:55:39.226Z,37.07
2022-11-15T14:58:12.212Z,42.43
2022-11-15T15:00:45.405Z,39.98
2022-11-15T15:03:18.238Z,36.28
2022-11-15T15:05:50.993Z,40.80
2022-11-15T15:08:25.310Z,39.80
2022-11-15T15:10:57.904Z,40.78
2022-11-15T15:13:31.552Z,43.58
2022-11-15T15:16:04.306Z,43.52
2022-11-15T15:18:38.142Z,45.35
2022-11-15T15:21:37.236Z,43.25
2022-11-15T15:24:07.541Z,41.02
2022-11-15T15:26:40.319Z,40.90
2022-11-15T15:29:13.212Z,48.08
2022-11-15T15:31:46.892Z,39.40
2022-11-15T15:34:19.676Z,43.38
2022-11-15T15:37:25.281Z,45.90
2022-11-15T15:39:59.201Z,40.73
2022-11-15T15:42:32.681Z,39.73
2022-11-15T15:45:06.876Z,38.63
2022-11-15T15:47:40.824Z,37.13
2022-11-15T15:50:30.910Z,43.92
2022-11-15T15:53:06.142Z,41.02
2022-11-15T15:55:39.552Z,41.28
2022-11-15T15:58:12.463Z,35.08
2022-11-15T16:00:45.083Z,36.75
2022-11-15T16:03:17.825Z,37.70
2022-11-15T16:05:50.363Z,35.13
2022-11-15T16:08:31.966Z,37.65
2022-11-15T16:11:04.667Z,33.60
2022-11-15T16:16:11.844Z,32.23
2022-11-15T16:18:45.096Z,31.95
2022-11-15T16:21:18.152Z,36.08
2022-11-15T16:23:51.288Z,34.00
2022-11-15T16:26:43.898Z,32.93
2022-11-15T16:29:17.562Z,33.48
2022-11-15T16:34:30.543Z,34.08
2022-11-15T16:37:02.400Z,30.32
2022-11-15T16:39:36.157Z,33.75
2022-11-15T16:42:10.725Z,33.48
2022-11-15T16:47:23.154Z,32.20
2022-11-15T16:49:55.592Z,32.08
2022-11-15T16:52:28.368Z,35.23
2022-11-15T16:55:00.848Z,32.42
2022-11-15T16:57:34.264Z,32.25
2022-11-15T17:00:08.446Z,32.42
2022-11-15T17:02:41.354Z,33.88
2022-11-15T17:05:18.830Z,30.52
2022-11-15T17:07:50.584Z,30.60
2022-11-15T17:10:25.796Z,27.73
2022-11-15T17:12:58.471Z,34.40
2022-11-15T17:15:30.837Z,33.38
2022-11-15T18:08:15.255Z,32.60
2022-11-15T18:10:43.370Z,31.23
2022-11-15T18:13:15.755Z,28.20
2022-11-15T18:15:56.452Z,32.50
2022-11-15T18:18:34.612Z,30.95
2022-11-15T18:21:15.326Z,32.00
2022-11-15T18:23:48.437Z,31.60
2022-11-15T18:26:26.638Z,29.00
2022-11-15T18:28:57.925Z,29.57
2022-11-15T18:31:31.735Z,32.88
2022-11-15T18:34:04.096Z,33.23
2022-11-15T18:36:38.603Z,31.85
2022-11-15T18:39:16.630Z,33.45
2022-11-15T18:41:49.139Z,27.05
2022-11-15T18:44:21.555Z,28.80
2022-11-15T18:46:55.883Z,29.02
2022-11-15T18:49:28.506Z,27.90
2022-11-15T18:52:00.949Z,30.40
2022-11-15T18:54:33.531Z,30.10
2022-11-15T18:57:06.063Z,28.27
2022-11-15T18:59:38.620Z,29.77
2022-11-15T19:02:13.542Z,29.65
2022-11-15T19:04:45.964Z,30.52
2022-11-15T19:07:18.449Z,29.45
2022-11-15T19:09:51.097Z,35.10
2022-11-15T19:12:23.549Z,30.12
2022-11-15T19:14:56.978Z,28.57
2022-11-15T19:17:31.275Z,30.37
2022-11-15T19:20:04.671Z,25.85
2022-11-15T19:22:38.314Z,28.35
2022-11-15T19:25:28.966Z,29.65
2022-11-15T19:28:01.309Z,26.27
2022-11-15T19:30:34.356Z,31.82
2022-11-15T19:33:06.879Z,29.55
2022-11-15T19:35:40.075Z,28.30
2022-11-15T19:38:16.133Z,28.70
2022-11-15T19:40:50.058Z,28.17
2022-11-15T19:43:22.581Z,28.70
2022-11-15T19:46:02.304Z,27.58
2022-11-15T19:48:34.577Z,27.98
2022-11-15T19:51:09.406Z,28.75
2022-11-15T19:53:42.515Z,26.37
2022-11-15T19:56:18.153Z,29.07
2022-11-15T19:58:54.826Z,28.75
2022-11-15T20:01:33.516Z,28.92
2022-11-15T20:04:06.237Z,26.93
2022-11-15T20:07:00.204Z,25.95
2022-11-15T20:09:33.319Z,27.40
2022-11-15T20:12:06.685Z,27.93
2022-11-15T20:14:39.661Z,26.82
2022-11-15T20:17:12.283Z,27.07
2022-11-15T20:19:45.218Z,27.13
2022-11-15T20:22:17.975Z,25.50
2022-11-15T20:24:50.982Z,25.08
2022-11-15T20:27:23.507Z,27.75
2022-11-15T20:29:56.049Z,27.07
2022-11-15T20:32:28.459Z,23.98
2022-11-15T20:35:01.245Z,27.27
2022-11-15T20:37:34.025Z,26.42
2022-11-15T20:40:07.716Z,25.10
2022-11-15T20:42:41.599Z,26.37
2022-11-15T20:45:14.793Z,23.15
2022-11-15T20:47:47.544Z,26.15
2022-11-15T20:50:40.865Z,25.85
2022-11-15T20:52:57.866Z,26.33
2022-11-15T20:55:29.570Z,25.65
2022-11-15T20:58:02.968Z,24.70
2022-11-15T21:00:37.079Z,26.25
2022-11-15T21:03:27.605Z,28.40
2022-11-15T21:06:01.666Z,28.02
2022-11-15T21:08:53.222Z,30.15
2022-11-15T21:11:43.967Z,27.42
2022-11-15T21:14:20.796Z,26.82
2022-11-15T21:16:54.114Z,24.90
2022-11-15T21:19:32.613Z,25.77
2022-11-15T21:22:02.588Z,27.58
2022-11-15T21:24:35.102Z,26.90
2022-11-15T21:27:08.336Z,25.25
2022-11-15T21:29:40.878Z,24.27
2022-11-15T21:32:13.394Z,26.62
2022-11-15T21:34:47.262Z,28.10
2022-11-15T21:39:51.801Z,25.90
2022-11-15T21:42:24.247Z,26.27
2022-11-15T21:44:57.150Z,26.55
2022-11-15T21:47:29.616Z,26.05
2022-11-15T21:50:02.333Z,25.37
2022-11-15T21:52:34.853Z,25.75
2022-11-15T21:55:08.210Z,24.30
2022-11-15T21:57:40.865Z,27.67
2022-11-15T22:00:34.649Z,26.90
2022-11-15T22:03:07.071Z,26.23
2022-11-15T22:05:40.403Z,25.92
2022-11-15T22:08:12.974Z,28.67
2022-11-15T22:10:51.230Z,25.17
2022-11-15T22:13:25.338Z,24.70
2022-11-15T22:15:58.434Z,26.70
2022-11-15T22:18:31.706Z,28.67
2022-11-15T22:21:13.148Z,26.23
2022-11-15T22:23:46.738Z,28.67
2022-11-15T22:26:23.765Z,24.50
2022-11-15T22:28:56.650Z,24.10
2022-11-15T22:31:29.594Z,23.20
2022-11-15T22:34:02.331Z,23.22
2022-11-15T22:36:52.271Z,23.92
2022-11-15T22:39:09.748Z,25.12
2022-11-15T22:41:42.636Z,23.20
2022-11-15T22:44:15.977Z,27.25
2022-11-15T22:46:48.674Z,24.50
2022-11-15T22:49:21.487Z,23.83
2022-11-15T22:51:54.307Z,24.00
2022-11-15T22:54:27.442Z,25.25
2022-11-15T22:57:00.509Z,24.20
2022-11-15T22:59:35.384Z,20.80
2022-11-15T23:02:08.559Z,24.37
2022-11-15T23:04:42.166Z,25.17
2022-11-15T23:07:14.943Z,23.70
2022-11-15T23:09:52.131Z,21.68
2022-11-15T23:12:42.285Z,22.80
2022-11-15T23:15:15.850Z,25.02
2022-11-15T23:17:49.094Z,23.98
2022-11-15T23:20:42.334Z,26.15
2022-11-15T23:22:56.807Z,23.42
2022-11-15T23:25:29.745Z,25.12
2022-11-15T23:28:04.691Z,24.65
2022-11-15T23:30:56.729Z,24.35
2022-11-15T23:33:47.450Z,24.63
2022-11-15T23:36:20.356Z,23.05
2022-11-15T23:38:53.729Z,29.82
2022-11-15T23:41:26.810Z,27.15
2022-11-15T23:43:59.973Z,25.68
2022-11-15T23:46:33.325Z,25.27
2022-11-15T23:49:06.103Z,27.70
2022-11-15T23:51:39.558Z,24.05
2022-11-15T23:54:12.481Z,27.05
2022-11-15T23:56:45.353Z,23.87
2022-11-15T23:59:20.477Z,23.12
